createdAt,value
2023-08-15T00:01:27.985Z,19.4
2023-08-15T00:03:35.915Z,19.4
2023-08-15T00:05:43.673Z,19.3
2023-08-15T00:07:51.833Z,19.3
2023-08-15T00:10:00.906Z,19.3
2023-08-15T00:12:09.657Z,19.4
2023-08-15T00:14:20.133Z,19.3
2023-08-15T00:16:29.258Z,19.3
2023-08-15T00:18:36.984Z,19.3
2023-08-15T00:20:48.116Z,19.3
2023-08-15T00:22:55.932Z,19.3
2023-08-15T00:25:03.797Z,19.3
2023-08-15T00:27:11.742Z,19.3
2023-08-15T00:29:19.671Z,19.3
2023-08-15T00:31:28.960Z,19.3
2023-08-15T00:33:37.170Z,19.3
2023-08-15T00:35:45.021Z,19.3
2023-08-15T00:37:53.131Z,19.3
2023-08-15T00:40:01.848Z,19.3
2023-08-15T00:42:10.349Z,19.2
2023-08-15T00:44:18.218Z,19.2
2023-08-15T00:46:28.877Z,19.2
2023-08-15T00:48:38.616Z,19.2
2023-08-15T00:50:48.898Z,19.2
2023-08-15T00:52:57.180Z,19.2
2023-08-15T00:55:06.285Z,19.2
2023-08-15T00:57:14.813Z,19.1
2023-08-15T00:59:22.843Z,19.1
2023-08-15T01:01:31.317Z,19.1
2023-08-15T01:03:40.789Z,19.1
2023-08-15T01:05:49.679Z,19.1
2023-08-15T01:07:57.589Z,19.1
2023-08-15T01:10:09.320Z,19.1
2023-08-15T01:12:26.573Z,19
2023-08-15T01:14:38.549Z,19
2023-08-15T01:16:49.960Z,19
2023-08-15T01:19:07.007Z,18.9
2023-08-15T01:21:26.385Z,18.9
2023-08-15T01:23:42.695Z,18.9
2023-08-15T01:25:51.431Z,18.9
2023-08-15T01:27:59.257Z,18.9
2023-08-15T01:30:08.378Z,18.8
2023-08-15T01:32:23.549Z,18.9
2023-08-15T01:34:38.191Z,18.8
2023-08-15T01:36:52.044Z,18.8
2023-08-15T01:39:04.901Z,18.7
2023-08-15T01:41:17.679Z,18.7
2023-08-15T01:43:26.495Z,18.7
2023-08-15T01:45:34.533Z,18.6
2023-08-15T01:47:42.569Z,18.6
2023-08-15T01:49:50.522Z,18.6
2023-08-15T01:51:58.637Z,18.6
2023-08-15T01:54:08.024Z,18.6
2023-08-15T01:56:15.771Z,18.5
2023-08-15T01:58:23.857Z,18.5
2023-08-15T02:00:31.681Z,18.5
2023-08-15T02:02:39.558Z,18.6
2023-08-15T02:04:47.315Z,18.5
2023-08-15T02:06:55.033Z,18.5
2023-08-15T02:09:07.358Z,18.5
2023-08-15T02:11:15.115Z,18.5
2023-08-15T02:13:23.082Z,18.4
2023-08-15T02:15:30.963Z,18.4
2023-08-15T02:17:38.738Z,18.4
2023-08-15T02:19:45.692Z,18.4
2023-08-15T02:25:16.010Z,18.4
2023-08-15T02:27:23.972Z,18.3
2023-08-15T02:29:31.967Z,18.3
2023-08-15T02:31:45.621Z,18.3
2023-08-15T02:34:02.351Z,18.3
2023-08-15T02:36:10.331Z,18.2
2023-08-15T02:38:20.240Z,18.2
2023-08-15T02:42:37.130Z,18.1
2023-08-15T02:44:45.165Z,18.1
2023-08-15T02:46:53.088Z,18.2
2023-08-15T02:49:01.183Z,18.1
2023-08-15T02:51:09.520Z,18.1
2023-08-15T02:53:17.626Z,18.1
2023-08-15T02:55:25.569Z,18.1
2023-08-15T02:57:35.108Z,18.1
2023-08-15T02:59:42.867Z,18.1
2023-08-15T03:01:50.771Z,18.1
2023-08-15T03:03:58.554Z,18.1
2023-08-15T03:06:09.061Z,18.1
2023-08-15T03:08:16.893Z,18.1
2023-08-15T03:10:24.627Z,18.1
2023-08-15T03:12:33.709Z,18
2023-08-15T03:14:41.595Z,18
2023-08-15T03:16:49.596Z,18
2023-08-15T03:19:00.246Z,18
2023-08-15T03:21:09.252Z,17.9
2023-08-15T03:23:19.900Z,17.9
2023-08-15T03:25:28.048Z,17.9
2023-08-15T03:27:39.796Z,17.9
2023-08-15T03:29:47.653Z,17.9
2023-08-15T03:31:58.749Z,17.9
2023-08-15T03:34:06.574Z,17.9
2023-08-15T03:36:14.355Z,17.9
2023-08-15T03:38:24.934Z,17.8
2023-08-15T03:40:34.987Z,17.8
2023-08-15T03:42:44.552Z,17.8
2023-08-15T03:44:52.474Z,17.8
2023-08-15T03:47:00.342Z,17.8
2023-08-15T03:49:08.278Z,17.8
2023-08-15T03:53:27.665Z,17.7
2023-08-15T03:55:35.503Z,17.7
2023-08-15T03:57:44.771Z,17.7
2023-08-15T03:59:52.785Z,17.7
2023-08-15T04:02:00.711Z,17.7
2023-08-15T04:04:08.901Z,17.7
2023-08-15T04:06:16.671Z,17.7
2023-08-15T04:08:24.424Z,17.7
2023-08-15T04:10:32.836Z,17.7
2023-08-15T04:12:40.607Z,17.7
2023-08-15T04:14:49.655Z,17.7
2023-08-15T04:16:57.604Z,17.7
2023-08-15T04:19:05.264Z,17.8
2023-08-15T04:21:13.245Z,17.8
2023-08-15T04:23:21.060Z,17.9
2023-08-15T04:25:29.451Z,17.9
2023-08-15T04:27:40.023Z,18
2023-08-15T04:29:49.265Z,18
2023-08-15T04:31:57.052Z,18.1
2023-08-15T04:34:05.993Z,18.2
2023-08-15T04:36:15.269Z,18.3
2023-08-15T04:38:23.202Z,18.3
2023-08-15T04:40:32.358Z,18.4
2023-08-15T04:42:40.219Z,18.5
2023-08-15T04:44:49.345Z,18.6
2023-08-15T04:46:57.231Z,18.7
2023-08-15T04:49:05.325Z,18.8
2023-08-15T04:51:13.366Z,19
2023-08-15T04:53:21.105Z,19.1
2023-08-15T04:55:28.864Z,19.3
2023-08-15T04:57:36.756Z,19.5
2023-08-15T04:59:44.480Z,19.6
2023-08-15T05:01:53.582Z,19.8
2023-08-15T05:04:01.453Z,20.1
2023-08-15T05:06:09.398Z,20.3
2023-08-15T05:08:17.287Z,20.5
2023-08-15T05:10:25.035Z,20.5
2023-08-15T05:12:32.867Z,20.5
2023-08-15T05:14:40.722Z,20.4
2023-08-15T05:16:48.669Z,20.4
2023-08-15T05:18:58.098Z,20.4
2023-08-15T05:21:05.812Z,20.4
2023-08-15T05:23:13.674Z,20.4
2023-08-15T05:25:21.557Z,20.4
2023-08-15T05:27:30.058Z,20.3
2023-08-15T05:29:44.839Z,20.4
2023-08-15T05:31:53.379Z,20.4
2023-08-15T05:34:02.977Z,20.3
2023-08-15T05:36:10.825Z,20.3
2023-08-15T05:38:18.698Z,20.3
2023-08-15T05:40:26.611Z,20.4
2023-08-15T05:42:34.365Z,20.4
2023-08-15T05:44:42.294Z,20.4
2023-08-15T05:46:52.057Z,20.4
2023-08-15T05:49:00.340Z,20.5
2023-08-15T05:51:09.523Z,20.5
2023-08-15T05:53:16.582Z,20.5
2023-08-15T05:55:24.326Z,20.6
2023-08-15T05:57:32.255Z,20.7
2023-08-15T05:59:40.133Z,20.8
2023-08-15T06:01:48.771Z,20.8
2023-08-15T06:03:56.835Z,20.9
2023-08-15T06:06:03.819Z,21
2023-08-15T06:08:13.017Z,21
2023-08-15T06:10:20.953Z,21
2023-08-15T06:12:28.880Z,21.1
2023-08-15T06:14:41.188Z,21.2
2023-08-15T06:16:52.046Z,21.3
2023-08-15T06:18:58.907Z,21.4
2023-08-15T06:21:06.620Z,21.5
2023-08-15T06:23:16.003Z,21.6
2023-08-15T06:25:23.824Z,21.6
2023-08-15T06:27:31.830Z,21.7
2023-08-15T06:29:42.716Z,22
2023-08-15T06:31:50.532Z,22.1
2023-08-15T06:33:58.318Z,22.2
2023-08-15T06:36:06.464Z,22.2
2023-08-15T06:38:15.852Z,22.4
2023-08-15T06:40:23.980Z,22.4
2023-08-15T06:42:31.776Z,22.5
2023-08-15T06:44:43.482Z,22.7
2023-08-15T06:46:51.746Z,22.7
2023-08-15T06:48:59.938Z,22.8
2023-08-15T06:51:08.501Z,22.9
2023-08-15T06:53:18.092Z,23
2023-08-15T06:55:25.024Z,23.1
2023-08-15T06:57:33.541Z,23.2
2023-08-15T06:59:41.521Z,23.3
2023-08-15T07:01:49.449Z,23.4
2023-08-15T07:03:57.896Z,23.4
2023-08-15T07:06:07.228Z,23.3
2023-08-15T07:08:15.053Z,23.4
2023-08-15T07:10:24.279Z,23.3
2023-08-15T07:12:31.998Z,23.3
2023-08-15T07:14:42.845Z,23.4
2023-08-15T07:16:50.877Z,23.4
2023-08-15T07:18:58.676Z,23.5
2023-08-15T07:21:06.072Z,23.5
2023-08-15T07:23:13.981Z,23.5
2023-08-15T07:25:25.170Z,23.5
2023-08-15T07:27:32.932Z,23.5
2023-08-15T07:29:40.964Z,23.6
2023-08-15T07:31:48.779Z,23.7
2023-08-15T07:33:56.590Z,23.9
2023-08-15T07:36:04.580Z,24
2023-08-15T07:38:14.426Z,24.1
2023-08-15T07:40:25.938Z,24.2
2023-08-15T07:42:34.071Z,24.3
2023-08-15T07:44:41.966Z,24.3
2023-08-15T07:46:50.235Z,24.3
2023-08-15T07:48:59.069Z,24.4
2023-08-15T07:51:09.582Z,24.3
2023-08-15T07:53:20.282Z,24.3
2023-08-15T07:55:32.887Z,24.2
2023-08-15T07:57:44.748Z,24.1
2023-08-15T07:59:52.639Z,24.1
2023-08-15T08:02:00.548Z,24.1
2023-08-15T08:04:09.240Z,24.1
2023-08-15T08:08:29.504Z,24.1
2023-08-15T08:10:38.692Z,24.2
2023-08-15T08:12:46.986Z,24.2
2023-08-15T08:14:57.794Z,24.2
2023-08-15T08:17:07.376Z,24.2
2023-08-15T08:19:15.466Z,24.2
2023-08-15T08:21:23.275Z,24.2
2023-08-15T08:23:31.527Z,24.2
2023-08-15T08:25:41.235Z,24.3
2023-08-15T08:27:49.811Z,24.3
2023-08-15T08:29:59.814Z,24.3
2023-08-15T08:32:08.192Z,24.3
2023-08-15T08:34:16.037Z,24.2
2023-08-15T08:36:23.931Z,24.2
2023-08-15T08:38:32.178Z,24.2
2023-08-15T08:40:44.801Z,24.1
2023-08-15T08:42:52.940Z,24.1
2023-08-15T08:45:01.344Z,24
2023-08-15T08:47:09.506Z,24
2023-08-15T08:49:18.678Z,24
2023-08-15T08:51:27.245Z,24.1
2023-08-15T08:53:35.114Z,24
2023-08-15T08:55:48.864Z,23.9
2023-08-15T08:57:58.507Z,23.8
2023-08-15T09:00:10.522Z,23.8
2023-08-15T09:02:21.530Z,23.8
2023-08-15T09:04:35.173Z,23.8
2023-08-15T09:06:43.084Z,23.7
2023-08-15T09:08:51.128Z,23.7
2023-08-15T09:11:00.430Z,23.7
2023-08-15T09:13:08.218Z,23.7
2023-08-15T09:15:16.287Z,23.6
2023-08-15T09:17:26.081Z,23.6
2023-08-15T09:19:41.182Z,23.5
2023-08-15T09:21:49.064Z,23.5
2023-08-15T09:24:00.439Z,23.4
2023-08-15T09:26:15.174Z,23.4
2023-08-15T09:28:24.062Z,23.4
2023-08-15T09:30:33.085Z,23.4
2023-08-15T09:32:42.220Z,23.4
2023-08-15T09:34:50.197Z,23.4
2023-08-15T09:36:58.213Z,23.3
2023-08-15T09:39:09.837Z,23.2
2023-08-15T09:41:22.037Z,23.2
2023-08-15T09:43:30.817Z,23.2
2023-08-15T09:45:39.515Z,23.2
2023-08-15T09:47:47.928Z,23.2
2023-08-15T09:49:57.996Z,23.2
2023-08-15T09:52:12.461Z,23.2
2023-08-15T09:54:22.943Z,23.4
2023-08-15T09:56:32.176Z,23.4
2023-08-15T09:58:43.818Z,23.3
2023-08-15T10:00:54.169Z,23.3
2023-08-15T10:03:07.715Z,23.4
2023-08-15T10:05:22.439Z,23.3
2023-08-15T10:07:34.019Z,23.4
2023-08-15T10:09:49.600Z,23.4
2023-08-15T10:12:00.739Z,23.4
2023-08-15T10:14:10.932Z,23.5
2023-08-15T10:16:19.299Z,23.6
2023-08-15T10:18:27.879Z,23.8
2023-08-15T10:20:38.815Z,23.9
2023-08-15T10:22:46.695Z,24.2
2023-08-15T10:24:56.584Z,24.4
2023-08-15T10:27:07.224Z,24.6
2023-08-15T10:29:15.335Z,24.8
2023-08-15T10:31:38.489Z,24.8
2023-08-15T10:33:47.035Z,24.8
2023-08-15T10:36:08.809Z,25
2023-08-15T10:38:19.999Z,25.3
2023-08-15T10:40:40.887Z,25.6
2023-08-15T10:43:11.518Z,25.9
2023-08-15T10:45:22.137Z,26.2
2023-08-15T10:47:45.502Z,26.4
2023-08-15T10:49:55.404Z,26.6
2023-08-15T10:52:03.451Z,26.8
2023-08-15T10:54:13.030Z,27
2023-08-15T10:56:21.639Z,27.2
2023-08-15T10:58:30.922Z,27.5
2023-08-15T11:00:39.232Z,27.6
2023-08-15T11:02:47.362Z,27.7
2023-08-15T11:04:56.516Z,27.8
2023-08-15T11:07:04.284Z,28
2023-08-15T11:09:12.513Z,28.1
2023-08-15T11:11:20.453Z,28.2
2023-08-15T11:13:29.803Z,28.2
2023-08-15T11:15:37.835Z,28.5
2023-08-15T11:17:49.291Z,28.4
2023-08-15T11:19:57.385Z,28.2
2023-08-15T11:22:05.589Z,28.3
2023-08-15T11:24:13.403Z,28.5
2023-08-15T11:26:21.633Z,28.4
2023-08-15T11:28:31.026Z,28.2
2023-08-15T11:30:38.944Z,27.9
2023-08-15T11:32:50.439Z,27.8
2023-08-15T11:34:58.522Z,27.7
2023-08-15T11:37:09.805Z,27.8
2023-08-15T11:39:18.957Z,27.8
2023-08-15T11:41:26.865Z,27.9
2023-08-15T11:43:36.979Z,27.8
2023-08-15T11:45:45.972Z,27.8
2023-08-15T11:47:58.814Z,27.7
2023-08-15T11:50:10.736Z,27.6
2023-08-15T11:52:20.417Z,27.7
2023-08-15T11:54:28.756Z,27.6
2023-08-15T11:56:49.261Z,27.7
2023-08-15T11:59:05.911Z,27.9
2023-08-15T12:01:13.916Z,28
2023-08-15T12:03:20.855Z,28.1
2023-08-15T12:05:28.909Z,28.1
2023-08-15T12:07:36.364Z,28.1
2023-08-15T12:09:44.230Z,28.1
2023-08-15T12:11:55.763Z,28.3
2023-08-15T12:14:05.390Z,28.5
2023-08-15T12:16:13.400Z,28.5
2023-08-15T12:18:21.416Z,28.4
2023-08-15T12:20:29.272Z,28.3
2023-08-15T12:22:39.000Z,28.1
2023-08-15T12:24:46.806Z,28.1
2023-08-15T12:26:54.538Z,28.1
2023-08-15T12:29:03.929Z,28
2023-08-15T12:31:11.796Z,27.8
2023-08-15T12:33:31.245Z,27.8
2023-08-15T12:35:45.297Z,27.9
2023-08-15T12:37:53.553Z,28.3
2023-08-15T12:40:01.547Z,28.4
2023-08-15T12:42:09.431Z,28.7
2023-08-15T12:44:18.604Z,29
2023-08-15T12:46:26.402Z,29.2
2023-08-15T12:48:34.625Z,29.4
2023-08-15T12:50:42.514Z,29.6
2023-08-15T12:52:50.325Z,29.9
2023-08-15T12:54:58.283Z,29.7
2023-08-15T12:57:06.168Z,29.5
2023-08-15T12:59:14.140Z,29.1
2023-08-15T13:01:24.005Z,28.6
2023-08-15T13:03:32.359Z,28.1
2023-08-15T13:05:40.435Z,27.5
2023-08-15T13:07:48.296Z,27.1
2023-08-15T13:09:56.204Z,26.8
2023-08-15T13:12:04.556Z,26.5
2023-08-15T13:14:12.436Z,26.2
2023-08-15T13:16:20.623Z,25.9
2023-08-15T13:18:30.981Z,25.5
2023-08-15T13:20:40.274Z,25.3
2023-08-15T13:22:48.466Z,25.1
2023-08-15T13:24:57.609Z,24.9
2023-08-15T13:27:06.430Z,24.8
2023-08-15T13:29:14.411Z,24.9
2023-08-15T13:31:22.655Z,25
2023-08-15T13:33:32.192Z,25.1
2023-08-15T13:35:40.683Z,25.4
2023-08-15T13:37:48.604Z,25.6
2023-08-15T13:39:58.329Z,25.7
2023-08-15T13:42:06.550Z,25.9
2023-08-15T13:44:14.391Z,25.9
2023-08-15T13:46:22.580Z,25.9
2023-08-15T13:48:32.256Z,26
2023-08-15T13:50:40.042Z,26.2
2023-08-15T13:52:47.762Z,26.4
2023-08-15T13:54:55.487Z,26.6
2023-08-15T13:57:03.425Z,26.7
2023-08-15T13:59:11.768Z,26.6
2023-08-15T14:01:19.681Z,26.4
2023-08-15T14:03:30.856Z,26.3
2023-08-15T14:05:41.005Z,26.4
2023-08-15T14:07:48.898Z,26.8
2023-08-15T14:09:57.059Z,27
2023-08-15T14:12:05.409Z,27.3
2023-08-15T14:14:14.027Z,27.5
2023-08-15T14:16:22.505Z,27.5
2023-08-15T14:18:30.293Z,27.4
2023-08-15T14:20:40.220Z,27.2
2023-08-15T14:22:48.658Z,27.2
2023-08-15T14:24:56.458Z,27.2
2023-08-15T14:27:04.646Z,27.1
2023-08-15T14:29:12.660Z,27
2023-08-15T14:31:20.746Z,27
2023-08-15T14:34:06.915Z,27.1
2023-08-15T14:36:34.969Z,27
2023-08-15T14:38:43.497Z,26.7
2023-08-15T14:40:52.595Z,26.5
2023-08-15T14:43:00.607Z,26.4
2023-08-15T14:45:09.212Z,26.4
2023-08-15T14:47:18.330Z,26.6
2023-08-15T14:49:26.341Z,26.7
2023-08-15T14:51:35.565Z,26.7
2023-08-15T14:53:43.732Z,26.6
2023-08-15T14:55:51.636Z,26.5
2023-08-15T14:57:59.586Z,26.6
2023-08-15T15:00:10.255Z,26.6
2023-08-15T15:02:20.379Z,26.6
2023-08-15T15:04:30.640Z,26.6
2023-08-15T15:06:39.883Z,26.5
2023-08-15T15:08:47.656Z,26.5
2023-08-15T15:10:55.716Z,26.6
2023-08-15T15:13:04.231Z,26.6
2023-08-15T15:15:12.560Z,26.6
2023-08-15T15:17:20.971Z,26.6
2023-08-15T15:19:28.723Z,26.6
2023-08-15T15:21:43.751Z,26.6
2023-08-15T15:23:51.486Z,26.6
2023-08-15T15:25:59.338Z,26.6
2023-08-15T15:28:08.184Z,26.5
2023-08-15T15:30:16.289Z,26.6
2023-08-15T15:32:24.176Z,26.8
2023-08-15T15:34:32.626Z,26.8
2023-08-15T15:36:40.326Z,26.9
2023-08-15T15:38:52.715Z,26.9
2023-08-15T15:41:00.492Z,27
2023-08-15T15:43:11.238Z,27
2023-08-15T15:45:19.226Z,27
2023-08-15T15:47:26.998Z,27.1
2023-08-15T15:49:34.899Z,27.1
2023-08-15T15:51:42.637Z,27
2023-08-15T15:53:51.831Z,27
2023-08-15T15:55:59.961Z,26.9
2023-08-15T15:58:08.155Z,27
2023-08-15T16:00:17.346Z,27
2023-08-15T16:02:25.404Z,27.1
2023-08-15T16:04:33.099Z,27.1
2023-08-15T16:06:41.013Z,27
2023-08-15T16:08:48.905Z,26.9
2023-08-15T16:11:00.547Z,26.8
2023-08-15T16:13:08.620Z,26.9
2023-08-15T16:15:37.006Z,26.7
2023-08-15T16:17:45.910Z,26.6
2023-08-15T16:19:53.730Z,26.5
2023-08-15T16:22:01.981Z,26.4
2023-08-15T16:24:10.891Z,26.4
2023-08-15T16:26:21.161Z,26.5
2023-08-15T16:28:29.397Z,26.5
2023-08-15T16:30:37.304Z,26.5
2023-08-15T16:32:46.504Z,26.5
2023-08-15T16:34:54.354Z,26.4
2023-08-15T16:37:02.208Z,26.3
2023-08-15T16:39:12.330Z,26.3
2023-08-15T16:41:21.882Z,26.2
2023-08-15T16:43:29.677Z,26.2
2023-08-15T16:45:36.846Z,26.2
2023-08-15T16:47:44.636Z,26.3
2023-08-15T16:49:52.372Z,26.4
2023-08-15T16:52:00.254Z,26.4
2023-08-15T16:54:08.395Z,26.4
2023-08-15T16:56:17.110Z,26.5
2023-08-15T16:58:26.324Z,26.6
2023-08-15T17:00:34.211Z,26.7
2023-08-15T17:02:42.082Z,26.7
2023-08-15T17:04:50.028Z,26.7
2023-08-15T17:06:58.259Z,26.6
2023-08-15T17:09:06.668Z,26.7
2023-08-15T17:11:14.579Z,26.6
2023-08-15T17:13:22.714Z,26.6
2023-08-15T17:15:32.691Z,26.4
2023-08-15T17:17:40.575Z,26.2
2023-08-15T17:19:49.658Z,26.1
2023-08-15T17:21:57.410Z,26
2023-08-15T17:24:06.122Z,25.9
2023-08-15T17:26:13.940Z,25.7
2023-08-15T17:28:21.733Z,25.6
2023-08-15T17:30:31.025Z,25.4
2023-08-15T17:32:39.318Z,25.4
2023-08-15T17:34:48.072Z,25.3
2023-08-15T17:36:58.361Z,25.3
2023-08-15T17:39:07.380Z,25.2
2023-08-15T17:41:15.201Z,25.1
2023-08-15T17:43:22.948Z,24.9
2023-08-15T17:45:32.104Z,24.8
2023-08-15T17:47:40.023Z,24.7
2023-08-15T17:49:47.999Z,24.7
2023-08-15T17:51:56.335Z,24.5
2023-08-15T17:54:04.097Z,24.4
2023-08-15T17:56:12.318Z,24.3
2023-08-15T17:58:20.244Z,24.3
2023-08-15T18:00:29.852Z,24.2
2023-08-15T18:02:41.182Z,24.2
2023-08-15T18:04:55.523Z,24.1
2023-08-15T18:07:02.695Z,24
2023-08-15T18:09:12.378Z,24
2023-08-15T18:11:20.400Z,23.9
2023-08-15T18:13:28.315Z,23.8
2023-08-15T18:15:36.212Z,23.8
2023-08-15T18:17:46.594Z,23.6
2023-08-15T18:19:54.926Z,23.5
2023-08-15T18:22:02.900Z,23.5
2023-08-15T18:24:11.836Z,23.5
2023-08-15T18:26:22.590Z,23.4
2023-08-15T18:28:31.074Z,23.4
2023-08-15T18:30:41.059Z,23.3
2023-08-15T18:32:49.293Z,23.3
2023-08-15T18:34:57.068Z,23.2
2023-08-15T18:37:04.947Z,23.1
2023-08-15T18:39:13.771Z,23
2023-08-15T18:41:21.560Z,23
2023-08-15T18:43:29.486Z,23
2023-08-15T18:45:38.631Z,22.9
2023-08-15T18:47:46.697Z,22.9
2023-08-15T18:49:55.862Z,22.8
2023-08-15T18:52:04.027Z,22.7
2023-08-15T18:54:11.944Z,22.7
2023-08-15T18:56:19.659Z,22.6
2023-08-15T18:58:30.163Z,22.6
2023-08-15T19:00:39.320Z,22.5
2023-08-15T19:02:47.204Z,22.5
2023-08-15T19:04:59.240Z,22.5
2023-08-15T19:07:07.074Z,22.5
2023-08-15T19:09:17.380Z,22.4
2023-08-15T19:11:27.943Z,22.4
2023-08-15T19:13:35.885Z,22.4
2023-08-15T19:15:43.693Z,22.3
2023-08-15T19:17:52.354Z,22.3
2023-08-15T19:20:01.578Z,22.2
2023-08-15T19:22:10.449Z,22.1
2023-08-15T19:24:18.825Z,22.1
2023-08-15T19:26:27.329Z,22
2023-08-15T19:28:35.219Z,22
2023-08-15T19:30:43.670Z,22
2023-08-15T19:32:52.348Z,21.9
2023-08-15T19:35:01.910Z,21.9
2023-08-15T19:37:12.846Z,21.8
2023-08-15T19:39:24.053Z,21.7
2023-08-15T19:41:31.836Z,21.7
2023-08-15T19:43:40.873Z,21.6
2023-08-15T19:45:48.804Z,21.5
2023-08-15T19:47:58.394Z,21.5
2023-08-15T19:50:10.135Z,21.4
2023-08-15T19:52:18.131Z,21.4
2023-08-15T19:54:26.089Z,21.3
2023-08-15T19:56:33.827Z,21.3
2023-08-15T19:58:44.482Z,21.3
2023-08-15T20:00:52.477Z,21.2
2023-08-15T20:03:00.734Z,21.1
2023-08-15T20:05:11.020Z,21.1
2023-08-15T20:07:19.793Z,21
2023-08-15T20:09:27.780Z,21
2023-08-15T20:11:35.935Z,20.9
2023-08-15T20:13:43.693Z,20.9
2023-08-15T20:16:01.620Z,20.8
2023-08-15T20:18:11.502Z,20.7
2023-08-15T20:20:21.426Z,20.7
2023-08-15T20:22:33.438Z,20.6
2023-08-15T20:24:41.437Z,20.6
2023-08-15T20:26:49.166Z,20.5
2023-08-15T20:28:57.769Z,20.5
2023-08-15T20:31:05.943Z,20.5
2023-08-15T20:33:14.116Z,20.4
2023-08-15T20:35:23.356Z,20.4
2023-08-15T20:37:32.758Z,20.4
2023-08-15T20:39:41.252Z,20.3
2023-08-15T20:41:48.991Z,20.3
2023-08-15T20:43:57.292Z,20.3
2023-08-15T20:46:05.242Z,20.2
2023-08-15T20:48:13.042Z,20.2
2023-08-15T20:50:21.523Z,20.2
2023-08-15T20:52:31.854Z,20.2
2023-08-15T20:54:43.277Z,20.1
2023-08-15T20:56:51.085Z,20.1
2023-08-15T20:58:58.876Z,20
2023-08-15T21:01:06.781Z,20
2023-08-15T21:03:14.901Z,19.9
2023-08-15T21:05:22.748Z,19.9
2023-08-15T21:07:31.868Z,19.9
2023-08-15T21:09:39.830Z,19.9
2023-08-15T21:11:47.800Z,19.9
2023-08-15T21:13:56.694Z,19.8
2023-08-15T21:16:04.795Z,19.8
2023-08-15T21:18:12.773Z,19.8
2023-08-15T21:20:20.821Z,19.8
2023-08-15T21:22:33.817Z,19.7
2023-08-15T21:24:44.154Z,19.7
2023-08-15T21:26:54.029Z,19.7
2023-08-15T21:29:02.128Z,19.7
2023-08-15T21:31:10.090Z,19.7
2023-08-15T21:33:18.503Z,19.6
2023-08-15T21:35:26.235Z,19.6
2023-08-15T21:37:35.370Z,19.6
2023-08-15T21:39:43.503Z,19.6
2023-08-15T21:41:51.222Z,19.6
2023-08-15T21:43:58.977Z,19.6
2023-08-15T21:46:06.891Z,19.6
2023-08-15T21:48:14.733Z,19.6
2023-08-15T21:50:22.503Z,19.5
2023-08-15T21:52:33.287Z,19.6
2023-08-15T21:54:42.504Z,19.6
2023-08-15T21:56:50.244Z,19.6
2023-08-15T21:58:57.937Z,19.6
2023-08-15T22:01:05.878Z,19.6
2023-08-15T22:03:13.750Z,19.6
2023-08-15T22:05:24.304Z,19.6
2023-08-15T22:07:32.195Z,19.6
2023-08-15T22:09:40.022Z,19.5
2023-08-15T22:11:49.244Z,19.6
2023-08-15T22:14:02.829Z,19.6
2023-08-15T22:16:10.718Z,19.6
2023-08-15T22:18:20.886Z,19.6
2023-08-15T22:20:32.086Z,19.6
2023-08-15T22:22:40.329Z,19.7
2023-08-15T22:24:57.304Z,19.7
2023-08-15T22:27:18.368Z,19.7
2023-08-15T22:29:40.297Z,19.7
2023-08-15T22:32:20.748Z,19.7
2023-08-15T22:34:16.308Z,19.7
2023-08-15T22:36:24.217Z,19.7
2023-08-15T22:38:32.064Z,19.6
2023-08-15T22:40:40.057Z,19.6
2023-08-15T22:42:49.351Z,19.6
2023-08-15T22:44:57.490Z,19.6
2023-08-15T22:47:05.836Z,19.6
2023-08-15T22:49:14.449Z,19.6
2023-08-15T22:51:22.676Z,19.6
2023-08-15T22:53:31.398Z,19.6
2023-08-15T22:55:39.182Z,19.5
2023-08-15T22:57:47.369Z,19.5
2023-08-15T22:59:56.946Z,19.5
2023-08-15T23:02:04.981Z,19.5
2023-08-15T23:04:12.711Z,19.4
2023-08-15T23:06:20.499Z,19.4
2023-08-15T23:08:28.270Z,19.4
2023-08-15T23:10:36.058Z,19.4
2023-08-15T23:12:44.021Z,19.4
2023-08-15T23:14:51.729Z,19.4
2023-08-15T23:17:00.802Z,19.4
2023-08-15T23:19:08.552Z,19.3
2023-08-15T23:21:16.487Z,19.3
2023-08-15T23:23:24.320Z,19.4
2023-08-15T23:25:32.227Z,19.3
2023-08-15T23:27:53.012Z,19.3
2023-08-15T23:30:02.650Z,19.3
2023-08-15T23:32:11.861Z,19.3
2023-08-15T23:34:19.965Z,19.1
2023-08-15T23:36:28.219Z,19.1
2023-08-15T23:38:36.100Z,19.1
2023-08-15T23:40:44.032Z,19
2023-08-15T23:42:51.764Z,19
2023-08-15T23:44:59.512Z,19
2023-08-15T23:47:07.728Z,19
2023-08-15T23:49:19.876Z,18.9
2023-08-15T23:51:30.905Z,18.8
2023-08-15T23:53:38.694Z,18.7
2023-08-15T23:55:46.551Z,18.7
2023-08-15T23:57:54.311Z,18.6
